createdAt,value
2018-05-07T00:06:44.203Z,3.95
2018-05-07T00:07:15.635Z,3.65
2018-05-07T00:07:47.060Z,4.07
2018-05-07T00:08:19.203Z,3.97
2018-05-07T00:08:50.604Z,4.07
2018-05-07T00:09:21.986Z,4.32
2018-05-07T00:09:53.403Z,4.50
2018-05-07T00:10:24.831Z,4.32
2018-05-07T00:10:56.215Z,4.15
2018-05-07T00:11:27.619Z,4.80
2018-05-07T00:11:59.078Z,4.07
2018-05-07T00:12:31.978Z,4.35
2018-05-07T00:13:04.111Z,4.47
2018-05-07T00:13:36.267Z,4.70
2018-05-07T00:14:07.655Z,4.00
2018-05-07T00:14:39.048Z,4.00
2018-05-07T00:15:11.339Z,4.25
2018-05-07T00:15:43.502Z,3.83
2018-05-07T00:16:14.884Z,5.25
2018-05-07T00:16:46.267Z,5.10
2018-05-07T00:17:17.688Z,4.60
2018-05-07T00:17:49.075Z,5.12
2018-05-07T00:18:21.206Z,5.35
2018-05-07T00:18:54.071Z,4.55
2018-05-07T00:19:26.951Z,5.57
2018-05-07T00:19:58.382Z,5.40
2018-05-07T00:20:29.747Z,6.78
2018-05-07T00:21:01.899Z,5.18
2018-05-07T00:21:33.287Z,5.03
2018-05-07T00:22:04.690Z,4.55
2018-05-07T00:22:36.163Z,4.80
2018-05-07T00:23:07.507Z,4.37
2018-05-07T00:23:38.899Z,4.47
2018-05-07T00:24:10.331Z,4.22
2018-05-07T00:24:41.726Z,4.62
2018-05-07T00:25:13.131Z,4.50
2018-05-07T00:25:44.526Z,4.43
2018-05-07T00:26:15.906Z,4.10
2018-05-07T00:26:48.081Z,4.43
2018-05-07T00:27:20.211Z,4.60
2018-05-07T00:27:51.631Z,3.90
2018-05-07T00:28:23.038Z,4.30
2018-05-07T00:28:55.155Z,3.50
2018-05-07T00:29:26.535Z,4.15
2018-05-07T00:29:58.658Z,3.97
2018-05-07T00:30:30.039Z,4.28
2018-05-07T00:31:01.449Z,4.62
2018-05-07T00:31:32.839Z,4.43
2018-05-07T00:32:04.259Z,4.45
2018-05-07T00:32:36.383Z,3.95
2018-05-07T00:33:07.797Z,4.70
2018-05-07T00:33:39.199Z,4.65
2018-05-07T00:34:10.611Z,4.65
2018-05-07T00:34:41.990Z,4.70
2018-05-07T00:35:14.107Z,4.72
2018-05-07T00:35:46.987Z,4.40
2018-05-07T00:36:18.415Z,4.55
2018-05-07T00:36:49.835Z,4.45
2018-05-07T00:37:21.227Z,4.87
2018-05-07T00:37:53.361Z,3.80
2018-05-07T00:38:24.791Z,4.85
2018-05-07T00:38:56.187Z,3.60
2018-05-07T00:39:28.346Z,4.12
2018-05-07T00:40:00.475Z,4.85
2018-05-07T00:40:31.863Z,3.85
2018-05-07T00:41:03.252Z,3.97
2018-05-07T00:41:35.395Z,4.37
2018-05-07T00:42:06.791Z,4.57
2018-05-07T00:42:38.179Z,4.10
2018-05-07T00:43:09.623Z,4.22
2018-05-07T00:43:48.084Z,4.60
2018-05-07T00:44:19.478Z,4.43
2018-05-07T00:44:50.862Z,4.47
2018-05-07T00:45:22.990Z,4.07
2018-05-07T00:45:54.379Z,4.10
2018-05-07T00:46:25.798Z,3.95
2018-05-07T00:46:57.923Z,3.75
2018-05-07T00:47:29.316Z,5.10
2018-05-07T00:48:00.694Z,5.00
2018-05-07T00:48:32.074Z,4.32
2018-05-07T00:49:03.514Z,5.20
2018-05-07T00:49:34.926Z,4.40
2018-05-07T00:50:06.322Z,4.90
2018-05-07T00:50:37.702Z,4.90
2018-05-07T00:51:09.090Z,4.62
2018-05-07T00:51:40.515Z,3.87
2018-05-07T00:52:12.687Z,4.93
2018-05-07T00:52:44.826Z,5.05
2018-05-07T00:53:16.955Z,3.87
2018-05-07T00:53:48.351Z,4.55
2018-05-07T00:54:19.775Z,4.85
2018-05-07T00:55:04.167Z,5.00
2018-05-07T00:55:36.261Z,4.35
2018-05-07T00:56:08.407Z,4.80
2018-05-07T00:56:39.818Z,5.12
2018-05-07T00:57:11.206Z,4.25
2018-05-07T00:57:42.591Z,4.70
2018-05-07T00:58:13.975Z,3.92
2018-05-07T00:58:45.367Z,5.15
2018-05-07T00:59:16.751Z,4.68
2018-05-07T00:59:49.646Z,5.10
2018-05-07T01:00:21.031Z,4.50
2018-05-07T01:00:52.411Z,4.20
2018-05-07T01:01:23.790Z,5.15
2018-05-07T01:01:55.942Z,4.80
2018-05-07T01:02:28.063Z,5.25
2018-05-07T01:02:59.442Z,5.00
2018-05-07T01:03:31.566Z,5.15
2018-05-07T01:04:02.955Z,5.05
2018-05-07T01:04:34.339Z,4.87
2018-05-07T01:05:05.758Z,4.82
2018-05-07T01:05:37.155Z,4.62
2018-05-07T01:06:08.570Z,5.10
2018-05-07T01:06:40.728Z,4.97
2018-05-07T01:07:12.151Z,4.22
2018-05-07T01:07:43.543Z,4.90
2018-05-07T01:08:14.956Z,4.72
2018-05-07T01:08:46.334Z,4.55
2018-05-07T01:09:18.454Z,4.80
2018-05-07T01:09:49.839Z,4.72
2018-05-07T01:10:22.007Z,3.92
2018-05-07T01:10:53.391Z,4.45
2018-05-07T01:11:24.774Z,4.50
2018-05-07T01:11:56.895Z,4.40
2018-05-07T01:12:29.055Z,4.18
2018-05-07T01:13:00.443Z,5.55
2018-05-07T01:13:31.835Z,4.22
2018-05-07T01:14:03.217Z,4.05
2018-05-07T01:14:35.330Z,3.95
2018-05-07T01:15:06.722Z,5.43
2018-05-07T01:15:38.147Z,4.55
2018-05-07T01:16:09.554Z,4.43
2018-05-07T01:16:40.974Z,4.57
2018-05-07T01:17:12.363Z,4.25
2018-05-07T01:17:44.515Z,3.92
2018-05-07T01:18:16.672Z,4.70
2018-05-07T01:18:48.059Z,4.65
2018-05-07T01:19:19.462Z,4.03
2018-05-07T01:19:50.848Z,4.68
2018-05-07T01:20:22.256Z,4.40
2018-05-07T01:20:54.402Z,4.40
2018-05-07T01:21:25.786Z,4.00
2018-05-07T01:21:57.167Z,4.43
2018-05-07T01:22:28.629Z,4.30
2018-05-07T01:23:00.760Z,4.95
2018-05-07T01:23:32.150Z,4.57
2018-05-07T01:24:03.607Z,4.70
2018-05-07T01:24:34.990Z,4.40
2018-05-07T01:25:06.394Z,4.82
2018-05-07T01:25:37.794Z,5.05
2018-05-07T01:26:09.319Z,4.40
2018-05-07T01:26:41.584Z,4.45
2018-05-07T01:27:12.918Z,4.20
2018-05-07T01:27:44.314Z,5.28
2018-05-07T01:28:15.711Z,4.30
2018-05-07T01:28:48.570Z,4.50
2018-05-07T01:29:19.951Z,3.80
2018-05-07T01:29:52.098Z,4.45
2018-05-07T01:30:23.510Z,5.12
2018-05-07T01:30:54.891Z,4.60
2018-05-07T01:31:27.035Z,4.40
2018-05-07T01:31:59.167Z,4.53
2018-05-07T01:32:37.558Z,4.45
2018-05-07T01:33:08.935Z,4.12
2018-05-07T01:33:40.323Z,3.90
2018-05-07T01:34:11.718Z,4.22
2018-05-07T01:34:44.586Z,4.70
2018-05-07T01:35:15.963Z,4.80
2018-05-07T01:35:47.348Z,4.65
2018-05-07T01:36:18.743Z,4.80
2018-05-07T01:36:50.894Z,4.78
2018-05-07T01:37:23.011Z,4.40
2018-05-07T01:37:54.395Z,4.53
2018-05-07T01:38:25.797Z,4.85
2018-05-07T01:38:57.180Z,4.28
2018-05-07T01:39:29.295Z,4.65
2018-05-07T01:40:00.706Z,4.62
2018-05-07T01:40:32.119Z,4.57
2018-05-07T01:41:04.254Z,4.97
2018-05-07T01:41:36.389Z,4.57
2018-05-07T01:42:07.828Z,4.50
2018-05-07T01:42:39.246Z,4.20
2018-05-07T01:43:10.639Z,5.03
2018-05-07T01:43:42.032Z,4.65
2018-05-07T01:44:13.415Z,5.87
2018-05-07T01:44:45.551Z,4.32
2018-05-07T01:45:16.943Z,5.20
2018-05-07T01:45:48.359Z,4.07
2018-05-07T01:46:19.762Z,4.80
2018-05-07T01:46:51.175Z,4.47
2018-05-07T01:47:22.587Z,4.60
2018-05-07T01:47:53.975Z,4.53
2018-05-07T01:48:25.360Z,4.78
2018-05-07T01:48:56.738Z,4.32
2018-05-07T01:49:28.155Z,4.32
2018-05-07T01:49:59.539Z,4.90
2018-05-07T01:50:30.959Z,4.40
2018-05-07T01:51:02.347Z,4.03
2018-05-07T01:51:33.727Z,5.45
2018-05-07T01:52:05.855Z,4.25
2018-05-07T01:52:37.273Z,4.60
2018-05-07T01:53:08.663Z,4.85
2018-05-07T01:53:40.794Z,5.15
2018-05-07T01:54:12.188Z,4.62
2018-05-07T01:54:43.568Z,4.60
2018-05-07T01:55:14.964Z,4.32
2018-05-07T01:55:46.382Z,4.80
2018-05-07T01:56:17.763Z,5.05
2018-05-07T01:56:49.150Z,4.68
2018-05-07T01:57:20.531Z,5.35
2018-05-07T01:57:51.942Z,4.78
2018-05-07T01:58:23.339Z,4.53
2018-05-07T01:58:54.719Z,4.45
2018-05-07T01:59:26.095Z,4.47
2018-05-07T01:59:57.510Z,4.85
2018-05-07T02:00:28.890Z,5.30
2018-05-07T02:01:00.271Z,4.82
2018-05-07T02:01:31.671Z,4.95
2018-05-07T02:02:03.095Z,5.25
2018-05-07T02:02:34.495Z,4.93
2018-05-07T02:03:05.911Z,4.50
2018-05-07T02:03:37.299Z,5.45
2018-05-07T02:04:09.453Z,4.87
2018-05-07T02:04:41.598Z,4.47
2018-05-07T02:05:13.762Z,5.25
2018-05-07T02:05:45.909Z,4.72
2018-05-07T02:06:17.319Z,5.07
2018-05-07T02:06:48.723Z,5.15
2018-05-07T02:07:21.019Z,4.65
2018-05-07T02:07:52.443Z,4.75
2018-05-07T02:08:23.866Z,5.22
2018-05-07T02:08:55.242Z,4.50
2018-05-07T02:09:26.619Z,5.10
2018-05-07T02:09:58.003Z,5.47
2018-05-07T02:10:30.126Z,4.65
2018-05-07T02:11:01.503Z,5.97
2018-05-07T02:11:33.635Z,4.70
2018-05-07T02:12:05.764Z,4.93
2018-05-07T02:12:37.187Z,4.07
2018-05-07T02:13:08.590Z,4.00
2018-05-07T02:13:40.743Z,5.12
2018-05-07T02:14:12.131Z,4.95
2018-05-07T02:14:43.523Z,4.75
2018-05-07T02:15:15.655Z,4.90
2018-05-07T02:15:47.043Z,4.80
2018-05-07T02:16:19.167Z,4.80
2018-05-07T02:16:50.550Z,4.85
2018-05-07T02:17:21.950Z,4.80
2018-05-07T02:17:53.331Z,4.12
2018-05-07T02:18:24.716Z,5.22
2018-05-07T02:18:56.127Z,4.30
2018-05-07T02:19:27.531Z,5.03
2018-05-07T02:19:59.662Z,4.80
2018-05-07T02:20:31.827Z,4.78
2018-05-07T02:21:03.207Z,5.05
2018-05-07T02:21:35.347Z,4.60
2018-05-07T02:22:07.479Z,4.90
2018-05-07T02:22:38.854Z,5.47
2018-05-07T02:23:10.979Z,4.30
2018-05-07T02:23:42.371Z,5.00
2018-05-07T02:24:13.782Z,5.25
2018-05-07T02:24:46.651Z,4.28
2018-05-07T02:25:18.074Z,4.65
2018-05-07T02:25:49.462Z,4.40
2018-05-07T02:26:21.603Z,4.47
2018-05-07T02:26:52.983Z,4.72
2018-05-07T02:27:24.375Z,5.28
2018-05-07T02:27:55.766Z,5.25
2018-05-07T02:28:27.139Z,5.60
2018-05-07T02:28:58.525Z,4.97
2018-05-07T02:29:30.673Z,5.00
2018-05-07T02:30:02.851Z,6.00
2018-05-07T02:30:34.239Z,4.60
2018-05-07T02:31:06.071Z,5.10
2018-05-07T02:31:37.473Z,5.30
2018-05-07T02:32:08.867Z,6.40
2018-05-07T02:32:40.278Z,5.00
2018-05-07T02:33:11.687Z,4.70
2018-05-07T02:33:43.813Z,4.78
2018-05-07T02:34:15.213Z,4.85
2018-05-07T02:34:46.642Z,5.20
2018-05-07T02:35:18.045Z,5.60
2018-05-07T02:35:49.435Z,4.30
2018-05-07T02:36:20.859Z,4.68
2018-05-07T02:36:52.999Z,5.60
2018-05-07T02:37:24.390Z,4.80
2018-05-07T02:37:55.779Z,4.80
2018-05-07T02:38:27.174Z,4.80
2018-05-07T02:38:58.582Z,5.12
2018-05-07T02:39:30.711Z,4.85
2018-05-07T02:40:02.166Z,4.97
2018-05-07T02:40:34.324Z,4.93
2018-05-07T02:41:05.708Z,4.80
2018-05-07T02:41:37.095Z,4.72
2018-05-07T02:42:09.252Z,4.65
2018-05-07T02:42:42.119Z,4.97
2018-05-07T02:43:13.512Z,5.28
2018-05-07T02:43:44.923Z,4.95
2018-05-07T02:44:17.042Z,4.55
2018-05-07T02:44:48.423Z,4.65
2018-05-07T02:45:20.580Z,5.25
2018-05-07T02:45:51.967Z,5.20
2018-05-07T02:46:23.351Z,4.80
2018-05-07T02:46:54.735Z,4.47
2018-05-07T02:47:26.123Z,5.25
2018-05-07T02:47:57.527Z,4.43
2018-05-07T02:48:28.938Z,4.05
2018-05-07T02:49:01.083Z,4.90
2018-05-07T02:49:32.467Z,4.47
2018-05-07T02:50:03.895Z,4.30
2018-05-07T02:50:36.089Z,4.80
2018-05-07T02:51:07.469Z,5.07
2018-05-07T02:51:39.612Z,5.15
2018-05-07T02:52:11.000Z,5.37
2018-05-07T02:52:42.395Z,4.40
2018-05-07T02:53:13.783Z,4.47
2018-05-07T02:53:45.171Z,5.18
2018-05-07T02:54:16.572Z,5.22
2018-05-07T02:54:47.963Z,4.93
2018-05-07T02:55:19.351Z,4.47
2018-05-07T02:55:50.765Z,4.82
2018-05-07T02:56:22.899Z,4.65
2018-05-07T02:56:54.304Z,5.87
2018-05-07T02:57:25.695Z,4.62
2018-05-07T02:57:57.831Z,4.93
2018-05-07T02:58:29.256Z,5.03
2018-05-07T02:59:00.676Z,5.43
2018-05-07T02:59:32.064Z,4.55
2018-05-07T03:00:03.494Z,5.35
2018-05-07T03:00:34.888Z,4.97
2018-05-07T03:01:07.059Z,5.28
2018-05-07T03:01:38.439Z,5.70
2018-05-07T03:02:16.743Z,4.93
2018-05-07T03:02:48.134Z,4.80
2018-05-07T03:03:20.263Z,5.03
2018-05-07T03:03:51.651Z,4.15
2018-05-07T03:04:23.055Z,4.85
2018-05-07T03:04:54.439Z,4.68
2018-05-07T03:05:25.819Z,4.45
2018-05-07T03:05:57.211Z,5.05
2018-05-07T03:06:28.615Z,5.20
2018-05-07T03:07:00.750Z,5.07
2018-05-07T03:07:32.168Z,5.60
2018-05-07T03:08:03.575Z,5.37
2018-05-07T03:08:34.991Z,4.70
2018-05-07T03:09:06.404Z,4.10
2018-05-07T03:09:37.803Z,4.70
2018-05-07T03:10:09.214Z,5.22
2018-05-07T03:10:40.607Z,4.60
2018-05-07T03:11:11.999Z,4.40
2018-05-07T03:11:43.421Z,5.18
2018-05-07T03:12:14.828Z,5.32
2018-05-07T03:12:46.215Z,4.55
2018-05-07T03:13:17.595Z,5.20
2018-05-07T03:13:48.983Z,5.07
2018-05-07T03:14:20.375Z,5.30
2018-05-07T03:14:51.787Z,4.85
2018-05-07T03:15:23.186Z,5.72
2018-05-07T03:15:54.583Z,4.90
2018-05-07T03:16:26.714Z,5.12
2018-05-07T03:16:58.128Z,5.20
2018-05-07T03:17:29.565Z,5.22
2018-05-07T03:18:00.971Z,4.60
2018-05-07T03:18:33.115Z,5.32
2018-05-07T03:19:05.250Z,5.20
2018-05-07T03:19:36.638Z,5.37
2018-05-07T03:20:08.026Z,4.97
2018-05-07T03:20:39.403Z,5.12
2018-05-07T03:21:10.815Z,5.05
2018-05-07T03:21:42.207Z,5.30
2018-05-07T03:22:14.362Z,5.07
2018-05-07T03:22:46.486Z,5.40
2018-05-07T03:23:18.631Z,4.65
2018-05-07T03:23:50.009Z,4.95
2018-05-07T03:24:22.127Z,5.03
2018-05-07T03:24:53.515Z,5.80
2018-05-07T03:25:25.638Z,4.75
2018-05-07T03:25:58.517Z,4.40
2018-05-07T03:26:29.935Z,5.43
2018-05-07T03:27:01.323Z,5.07
2018-05-07T03:27:33.479Z,4.50
2018-05-07T03:28:05.608Z,4.50
2018-05-07T03:28:36.999Z,4.95
2018-05-07T03:29:08.387Z,4.40
2018-05-07T03:29:39.807Z,5.20
2018-05-07T03:30:11.195Z,4.80
2018-05-07T03:30:42.611Z,4.30
2018-05-07T03:31:14.007Z,5.30
2018-05-07T03:31:45.395Z,5.18
2018-05-07T03:32:16.782Z,6.12
2018-05-07T03:32:48.203Z,5.28
2018-05-07T03:33:20.335Z,5.05
2018-05-07T03:33:51.739Z,5.22
2018-05-07T03:34:23.127Z,4.85
2018-05-07T03:34:54.508Z,5.43
2018-05-07T03:35:25.915Z,5.00
2018-05-07T03:35:57.303Z,5.40
2018-05-07T03:36:28.694Z,5.30
2018-05-07T03:37:00.075Z,4.60
2018-05-07T03:38:30.539Z,4.65
2018-05-07T03:39:01.991Z,4.50
2018-05-07T03:39:33.371Z,5.00
2018-05-07T03:40:05.519Z,4.37
2018-05-07T03:40:36.916Z,4.78
2018-05-07T03:41:08.323Z,4.55
2018-05-07T03:41:39.739Z,4.82
2018-05-07T03:42:11.159Z,4.53
2018-05-07T03:42:42.583Z,5.40
2018-05-07T03:43:13.979Z,4.72
2018-05-07T03:43:46.135Z,4.25
2018-05-07T03:44:18.267Z,4.70
2018-05-07T03:44:49.651Z,4.57
2018-05-07T03:45:21.035Z,5.12
2018-05-07T03:45:52.460Z,4.70
2018-05-07T03:46:23.883Z,5.00
2018-05-07T03:46:55.271Z,5.10
2018-05-07T03:47:26.647Z,5.03
2018-05-07T03:47:58.044Z,5.32
2018-05-07T03:48:29.443Z,4.43
2018-05-07T03:49:00.847Z,4.80
2018-05-07T03:49:32.230Z,4.80
2018-05-07T03:50:03.649Z,4.75
2018-05-07T03:50:35.791Z,4.55
2018-05-07T03:51:07.188Z,4.68
2018-05-07T03:51:38.611Z,5.15
2018-05-07T03:52:10.009Z,4.37
2018-05-07T03:52:41.404Z,5.25
2018-05-07T03:53:12.791Z,4.70
2018-05-07T03:53:44.166Z,4.75
2018-05-07T03:54:15.603Z,4.78
2018-05-07T03:54:47.731Z,4.50
2018-05-07T03:55:22.027Z,4.95
2018-05-07T03:55:53.411Z,4.75
2018-05-07T03:56:24.824Z,5.25
2018-05-07T03:56:56.207Z,4.97
2018-05-07T03:57:27.639Z,4.97
2018-05-07T03:57:59.032Z,5.00
2018-05-07T03:58:30.420Z,4.53
2018-05-07T03:59:01.835Z,4.78
2018-05-07T03:59:33.247Z,4.75
2018-05-07T04:00:04.643Z,4.70
2018-05-07T04:00:36.098Z,4.37
2018-05-07T04:01:07.487Z,4.82
2018-05-07T04:01:38.888Z,4.70
2018-05-07T04:02:10.271Z,4.55
2018-05-07T04:02:41.667Z,4.85
2018-05-07T04:03:13.058Z,5.60
2018-05-07T04:03:44.454Z,4.55
2018-05-07T04:04:15.846Z,5.40
2018-05-07T04:04:48.024Z,5.53
2018-05-07T04:05:20.155Z,5.43
2018-05-07T04:05:52.319Z,5.03
2018-05-07T04:06:25.187Z,4.75
2018-05-07T04:06:56.583Z,4.70
2018-05-07T04:07:28.035Z,5.35
2018-05-07T04:07:59.454Z,5.40
2018-05-07T04:08:30.867Z,4.85
2018-05-07T04:09:02.327Z,5.05
2018-05-07T04:09:33.748Z,5.55
2018-05-07T04:10:05.923Z,5.15
2018-05-07T04:10:38.075Z,5.35
2018-05-07T04:11:10.215Z,5.05
2018-05-07T04:11:41.607Z,5.93
2018-05-07T04:12:13.027Z,5.35
2018-05-07T04:12:45.199Z,4.80
2018-05-07T04:13:23.488Z,4.75
2018-05-07T04:13:54.887Z,5.05
2018-05-07T04:14:26.296Z,5.72
2018-05-07T04:14:57.682Z,5.05
2018-05-07T04:15:29.108Z,5.53
2018-05-07T04:16:00.528Z,5.30
2018-05-07T04:16:44.127Z,4.72
2018-05-07T04:17:31.847Z,5.15
2018-05-07T04:18:15.643Z,4.37
2018-05-07T04:18:59.343Z,4.50
2018-05-07T04:19:42.987Z,5.10
2018-05-07T04:20:26.814Z,4.68
2018-05-07T05:41:11.943Z,4.23
2018-05-07T05:41:44.067Z,4.40
2018-05-07T05:42:16.935Z,4.27
2018-05-07T05:42:48.323Z,4.33
2018-05-07T05:43:19.715Z,4.57
2018-05-07T05:43:51.171Z,4.20
2018-05-07T05:44:22.535Z,4.90
2018-05-07T05:44:53.959Z,5.20
2018-05-07T05:45:25.343Z,4.10
2018-05-07T05:45:56.739Z,4.83
2018-05-07T05:46:28.155Z,4.60
2018-05-07T05:46:59.588Z,4.80
2018-05-07T05:47:30.983Z,4.70
2018-05-07T05:48:03.118Z,4.10
2018-05-07T05:48:34.551Z,4.67
2018-05-07T05:49:05.939Z,4.90
2018-05-07T05:49:37.362Z,4.53
2018-05-07T05:50:09.590Z,4.50
2018-05-07T05:50:40.953Z,4.10
2018-05-07T05:51:12.339Z,4.70
2018-05-07T05:51:43.747Z,4.50
2018-05-07T05:52:15.887Z,4.57
2018-05-07T05:52:47.270Z,4.77
2018-05-07T05:53:18.655Z,4.17
2018-05-07T05:53:50.078Z,4.10
2018-05-07T05:54:21.470Z,4.70
2018-05-07T05:54:53.620Z,4.90
2018-05-07T05:55:25.044Z,4.63
2018-05-07T05:55:56.447Z,4.50
2018-05-07T05:56:27.920Z,4.78
2018-05-07T05:56:59.311Z,4.72
2018-05-07T05:57:30.715Z,4.90
2018-05-07T05:58:02.136Z,4.78
2018-05-07T05:58:33.555Z,4.50
2018-05-07T05:59:04.961Z,4.60
2018-05-07T05:59:37.091Z,4.70
2018-05-07T06:00:08.483Z,4.28
2018-05-07T06:00:39.875Z,5.35
2018-05-07T06:01:11.271Z,4.47
2018-05-07T06:01:42.667Z,5.30
2018-05-07T06:02:14.115Z,4.65
2018-05-07T06:02:45.533Z,5.03
2018-05-07T06:03:16.927Z,4.90
2018-05-07T06:03:48.394Z,5.30
2018-05-07T06:04:20.467Z,5.93
2018-05-07T06:04:51.847Z,5.85
2018-05-07T06:05:23.990Z,5.30
2018-05-07T06:05:55.375Z,5.07
2018-05-07T06:06:26.755Z,5.25
2018-05-07T06:06:58.150Z,4.80
2018-05-07T06:07:29.623Z,4.87
2018-05-07T06:08:01.011Z,4.90
2018-05-07T06:08:33.139Z,5.40
2018-05-07T06:09:04.607Z,5.30
2018-05-07T06:09:35.970Z,5.40
2018-05-07T06:10:07.391Z,5.28
2018-05-07T06:10:38.783Z,5.70
2018-05-07T06:11:10.174Z,5.12
2018-05-07T06:11:42.304Z,5.00
2018-05-07T06:12:13.711Z,5.18
2018-05-07T06:12:45.130Z,5.57
2018-05-07T06:13:16.526Z,5.40
2018-05-07T06:13:47.938Z,4.97
2018-05-07T06:14:19.331Z,5.90
2018-05-07T06:14:50.790Z,5.00
2018-05-07T06:15:22.111Z,5.20
2018-05-07T06:15:54.246Z,6.37
2018-05-07T06:16:25.667Z,5.10
2018-05-07T06:16:57.063Z,4.97
2018-05-07T06:17:29.192Z,5.60
2018-05-07T06:18:00.607Z,5.40
2018-05-07T06:18:32.003Z,6.00
2018-05-07T06:19:04.139Z,5.70
2018-05-07T06:19:35.519Z,5.30
2018-05-07T06:20:06.907Z,5.20
2018-05-07T06:20:38.295Z,5.32
2018-05-07T06:21:10.493Z,5.53
2018-05-07T06:21:41.863Z,5.60
2018-05-07T06:22:13.257Z,5.70
2018-05-07T06:23:43.711Z,5.45
2018-05-07T06:24:15.103Z,5.53
2018-05-07T06:24:47.239Z,5.18
2018-05-07T06:25:18.629Z,5.90
2018-05-07T06:26:04.927Z,6.30
2018-05-07T06:26:36.327Z,5.90
2018-05-07T06:27:07.723Z,5.68
2018-05-07T06:27:39.140Z,5.97
2018-05-07T06:28:10.532Z,5.95
2018-05-07T06:28:41.928Z,6.45
2018-05-07T06:29:13.340Z,6.60
2018-05-07T06:29:45.467Z,5.82
2018-05-07T06:30:16.851Z,5.93
2018-05-07T06:30:48.251Z,6.25
2018-05-07T06:31:19.646Z,5.72
2018-05-07T06:31:51.038Z,5.82
2018-05-07T06:32:23.907Z,6.05
2018-05-07T06:32:55.288Z,5.95
2018-05-07T06:33:27.415Z,5.22
2018-05-07T06:33:58.823Z,5.70
2018-05-07T06:34:30.339Z,5.60
2018-05-07T06:35:01.683Z,5.43
2018-05-07T06:35:33.095Z,6.25
2018-05-07T06:36:04.492Z,5.62
2018-05-07T06:36:35.892Z,5.97
2018-05-07T06:37:08.022Z,6.22
2018-05-07T06:37:40.183Z,6.85
2018-05-07T06:38:12.343Z,6.32
2018-05-07T06:38:45.211Z,6.18
2018-05-07T06:39:16.603Z,6.53
2018-05-07T06:39:48.015Z,6.10
2018-05-07T06:40:20.167Z,6.00
2018-05-07T06:40:51.593Z,6.43
2018-05-07T06:41:22.987Z,6.40
2018-05-07T06:41:54.420Z,6.35
2018-05-07T06:42:25.806Z,6.47
2018-05-07T06:42:57.199Z,6.05
2018-05-07T06:43:29.398Z,6.82
2018-05-07T06:44:01.471Z,6.55
2018-05-07T06:44:32.862Z,6.45
2018-05-07T06:45:04.279Z,6.60
2018-05-07T06:45:35.745Z,6.00
2018-05-07T06:46:07.856Z,6.12
2018-05-07T06:46:40.016Z,5.62
2018-05-07T06:47:12.174Z,6.35
2018-05-07T06:47:43.583Z,6.20
2018-05-07T06:48:14.972Z,6.20
2018-05-07T06:48:47.107Z,6.65
2018-05-07T06:49:18.524Z,5.95
2018-05-07T06:49:49.956Z,5.40
2018-05-07T06:50:21.376Z,5.72
2018-05-07T06:50:52.783Z,6.40
2018-05-07T06:51:24.180Z,6.22
2018-05-07T06:51:55.576Z,6.05
2018-05-07T06:52:27.716Z,5.25
2018-05-07T06:52:59.107Z,6.45
2018-05-07T06:53:30.495Z,6.18
2018-05-07T06:54:01.889Z,6.65
2018-05-07T06:54:33.271Z,5.55
2018-05-07T06:55:04.679Z,5.53
2018-05-07T06:55:36.135Z,6.40
2018-05-07T06:56:07.522Z,5.87
2018-05-07T06:56:38.959Z,6.07
2018-05-07T06:57:10.351Z,5.80
2018-05-07T06:57:41.740Z,5.70
2018-05-07T06:58:13.128Z,5.18
2018-05-07T06:58:44.555Z,5.70
2018-05-07T06:59:16.681Z,5.37
2018-05-07T06:59:48.072Z,6.25
2018-05-07T07:00:19.467Z,6.60
2018-05-07T07:00:50.920Z,5.95
2018-05-07T07:01:23.051Z,6.00
2018-05-07T07:01:54.451Z,5.75
2018-05-07T07:02:25.959Z,5.70
2018-05-07T07:02:57.390Z,5.10
2018-05-07T07:03:28.651Z,5.87
2018-05-07T07:04:00.779Z,5.70
2018-05-07T07:04:32.163Z,6.20
2018-05-07T07:05:03.571Z,6.53
2018-05-07T07:05:35.723Z,6.18
2018-05-07T07:06:07.131Z,5.70
2018-05-07T07:06:38.524Z,5.40
2018-05-07T07:07:09.907Z,5.80
2018-05-07T07:07:41.292Z,6.30
2018-05-07T07:08:12.714Z,6.90
2018-05-07T07:08:44.100Z,6.05
2018-05-07T07:09:15.499Z,6.62
2018-05-07T07:09:46.888Z,5.97
2018-05-07T07:10:19.043Z,5.37
2018-05-07T07:10:51.171Z,5.90
2018-05-07T07:11:22.596Z,6.75
2018-05-07T07:11:54.044Z,6.30
2018-05-07T07:12:25.427Z,6.65
2018-05-07T07:12:57.551Z,5.50
2018-05-07T07:13:28.940Z,5.45
2018-05-07T07:14:00.320Z,5.50
2018-05-07T07:14:31.707Z,5.68
2018-05-07T07:15:03.952Z,5.45
2018-05-07T07:15:35.311Z,5.75
2018-05-07T07:16:07.458Z,6.25
2018-05-07T07:16:39.623Z,5.15
2018-05-07T07:17:11.753Z,6.22
2018-05-07T07:17:43.151Z,6.05
2018-05-07T07:18:14.562Z,7.12
2018-05-07T07:18:46.692Z,6.10
2018-05-07T07:19:18.103Z,6.05
2018-05-07T07:19:49.499Z,5.62
2018-05-07T07:20:20.888Z,6.00
2018-05-07T07:20:52.303Z,6.90
2018-05-07T07:21:23.693Z,5.82
2018-05-07T07:21:55.203Z,6.68
2018-05-07T07:22:27.295Z,6.15
2018-05-07T07:22:58.684Z,5.62
2018-05-07T07:23:30.075Z,6.57
2018-05-07T07:24:01.466Z,5.93
2018-05-07T07:24:32.863Z,5.80
2018-05-07T07:25:04.275Z,6.30
2018-05-07T07:25:35.663Z,5.72
2018-05-07T07:26:08.527Z,5.95
2018-05-07T07:26:39.920Z,6.25
2018-05-07T07:27:11.335Z,5.45
2018-05-07T07:27:43.458Z,5.37
2018-05-07T07:28:14.916Z,5.93
2018-05-07T07:28:46.272Z,5.60
2018-05-07T07:29:17.669Z,6.35
2018-05-07T07:29:49.102Z,5.95
2018-05-07T07:30:20.495Z,6.20
2018-05-07T07:30:52.634Z,5.68
2018-05-07T07:31:24.779Z,5.97
2018-05-07T07:31:56.179Z,5.95
2018-05-07T07:32:27.595Z,6.00
2018-05-07T07:32:59.727Z,6.32
2018-05-07T07:33:31.111Z,5.62
2018-05-07T07:34:02.546Z,4.85
2018-05-07T07:34:33.955Z,5.60
2018-05-07T07:35:05.360Z,6.43
2018-05-07T07:35:36.775Z,5.68
2018-05-07T07:36:08.159Z,5.50
2018-05-07T07:36:39.559Z,7.05
2018-05-07T07:37:10.947Z,5.87
2018-05-07T07:37:42.355Z,5.12
2018-05-07T07:38:13.743Z,5.87
2018-05-07T07:38:45.128Z,5.62
2018-05-07T07:39:16.522Z,5.25
2018-05-07T07:39:47.914Z,6.50
2018-05-07T07:40:19.320Z,5.85
2018-05-07T07:40:51.508Z,5.80
2018-05-07T07:41:22.903Z,6.22
2018-05-07T07:41:55.067Z,5.68
2018-05-07T07:42:26.463Z,5.35
2018-05-07T07:42:57.887Z,5.90
2018-05-07T07:43:29.303Z,6.30
2018-05-07T07:44:00.719Z,5.43
2018-05-07T07:44:32.119Z,6.22
2018-05-07T07:45:03.551Z,6.12
2018-05-07T07:45:34.955Z,6.07
2018-05-07T07:46:06.379Z,5.82
2018-05-07T07:46:37.776Z,5.90
2018-05-07T07:47:09.194Z,6.07
2018-05-07T07:47:41.331Z,5.72
2018-05-07T07:48:12.791Z,5.75
2018-05-07T07:48:44.178Z,6.25
2018-05-07T07:49:15.561Z,5.05
2018-05-07T07:49:46.947Z,5.62
2018-05-07T07:50:18.335Z,6.35
2018-05-07T07:50:49.723Z,5.35
2018-05-07T07:51:21.115Z,5.30
2018-05-07T07:51:52.506Z,6.43
2018-05-07T07:52:23.972Z,6.07
2018-05-07T07:52:55.307Z,6.50
2018-05-07T07:53:26.725Z,5.68
2018-05-07T07:53:58.127Z,6.28
2018-05-07T07:54:29.520Z,5.32
2018-05-07T07:55:00.923Z,5.62
2018-05-07T07:55:32.323Z,5.62
2018-05-07T07:56:03.739Z,5.45
2018-05-07T07:56:35.126Z,6.00
2018-05-07T07:57:06.523Z,5.82
2018-05-07T07:57:37.903Z,5.62
2018-05-07T07:58:09.294Z,5.60
2018-05-07T07:58:40.715Z,6.30
2018-05-07T07:59:12.099Z,6.00
2018-05-07T07:59:43.511Z,5.40
2018-05-07T08:00:15.640Z,5.85
2018-05-07T08:00:47.035Z,5.75
2018-05-07T08:01:18.426Z,5.10
2018-05-07T08:01:49.839Z,5.35
2018-05-07T08:02:21.235Z,5.18
2018-05-07T08:02:53.364Z,5.10
2018-05-07T08:03:24.755Z,6.05
2018-05-07T08:03:56.186Z,5.37
2018-05-07T08:04:27.594Z,5.57
2018-05-07T08:04:58.983Z,4.90
2018-05-07T08:05:30.392Z,5.03
2018-05-07T08:06:02.519Z,5.53
2018-05-07T08:06:33.942Z,5.00
2018-05-07T08:07:05.323Z,5.45
2018-05-07T08:07:36.736Z,5.35
2018-05-07T08:08:08.147Z,5.93
2018-05-07T08:08:39.535Z,5.82
2018-05-07T08:09:10.943Z,5.55
2018-05-07T08:09:42.330Z,5.18
2018-05-07T08:10:15.211Z,4.97
2018-05-07T08:10:47.375Z,5.75
2018-05-07T08:11:19.510Z,4.87
2018-05-07T08:11:50.917Z,5.68
2018-05-07T08:12:22.455Z,5.30
2018-05-07T08:15:19.339Z,5.20
2018-05-07T08:15:50.740Z,5.68
2018-05-07T08:16:22.890Z,5.37
2018-05-07T08:16:54.296Z,5.22
2018-05-07T08:17:25.700Z,5.85
2018-05-07T08:17:57.844Z,5.70
2018-05-07T08:18:30.015Z,5.50
2018-05-07T08:19:01.472Z,5.80
2018-05-07T08:19:32.884Z,5.75
2018-05-07T08:20:05.040Z,5.43
2018-05-07T08:20:36.466Z,5.03
2018-05-07T08:21:07.871Z,6.30
2018-05-07T08:21:39.293Z,5.50
2018-05-07T08:22:11.448Z,5.40
2018-05-07T08:22:43.594Z,4.10
2018-05-07T08:23:14.987Z,5.22
2018-05-07T08:23:46.384Z,5.75
2018-05-07T08:24:18.549Z,5.55
2018-05-07T08:24:50.712Z,4.70
2018-05-07T08:25:22.147Z,4.22
2018-05-07T08:25:54.322Z,4.72
2018-05-07T08:26:25.732Z,4.20
2018-05-07T08:26:57.133Z,4.60
2018-05-07T08:27:28.540Z,4.37
2018-05-07T08:27:59.940Z,5.10
2018-05-07T08:28:32.108Z,4.60
2018-05-07T08:29:05.003Z,4.32
2018-05-07T08:29:37.165Z,4.57
2018-05-07T08:30:09.316Z,4.78
2018-05-07T08:30:41.472Z,4.60
2018-05-07T08:31:13.657Z,4.80
2018-05-07T08:31:45.064Z,3.67
2018-05-07T08:32:16.471Z,4.30
2018-05-07T08:32:47.868Z,4.90
2018-05-07T08:33:20.013Z,4.70
2018-05-07T08:33:52.157Z,4.37